Stevens Pass
Berne
Latest observation 08/31 18:00 PDT
| Time (PDT) | Temp °F 2700' | RH % 2700' | Pcp1 in 2700' | PcpSum in 2700' | 24Sno in 2700' | SnoHt in 2700' | Pres millibar 2700' |
|---|---|---|---|---|---|---|---|
| 08/31 18:00 | 75 | 31 | 0.00 | 0.06 | 88.5 | 0.3 | 1012 |
| 08/31 17:00 | 76 | 30 | 0.00 | 0.06 | 79.7 | -0.8 | 1012 |
| 08/31 16:00 | 75 | 31 | 0.00 | 0.06 | 81.1 | 1.0 | 1012 |
| 08/31 15:00 | 74 | 32 | 0.00 | 0.06 | 66.7 | 1.9 | 1013 |
| 08/31 14:00 | 73 | 33 | 0.00 | 0.06 | 60.2 | 2.5 | 1014 |
| 08/31 13:00 | 71 | 36 | 0.00 | 0.06 | 60.0 | 2.8 | 1015 |
| 08/31 12:00 | 69 | 42 | 0.00 | 0.06 | 52.9 | 3.0 | 1015 |
| 08/31 11:00 | 68 | 45 | 0.00 | 0.06 | 42.1 | 1.3 | 1016 |
| 08/31 10:00 | 63 | 56 | 0.00 | 0.06 | 49.9 | 1.4 | 1016 |
| 08/31 09:00 | 56 | 68 | 0.00 | 0.06 | 62.1 | 1.6 | 1017 |
| 08/31 08:00 | 47 | 86 | 0.00 | 0.06 | 88.9 | 1.6 | 1017 |
| 08/31 07:00 | 44 | 90 | 0.00 | 0.06 | 81.1 | 2.6 | 1017 |
| 08/31 06:00 | 44 | 90 | 0.00 | 0.06 | 77.9 | 4.5 | 1016 |
| 08/31 05:00 | 44 | 89 | 0.00 | 0.06 | 66.8 | 2.9 | 1017 |
| 08/31 04:00 | 45 | 88 | 0.00 | 0.06 | 72.6 | 2.4 | 1017 |
| 08/31 03:00 | 47 | 86 | 0.00 | 0.06 | 66.3 | 3.0 | 1017 |
| 08/31 02:00 | 49 | 83 | 0.00 | 0.06 | 83.9 | 2.7 | 1017 |
| 08/31 01:00 | 49 | 82 | 0.00 | 0.06 | 79.7 | 1.9 | 1017 |
| 08/31 00:00 | 52 | 77 | 0.00 | 0.06 | 86.4 | 1.5 | 1018 |
| 08/30 23:00 | 53 | 75 | 0.00 | 0.06 | 77.8 | 0.9 | 1018 |
| 08/30 22:00 | 54 | 71 | 0.00 | 0.06 | 70.0 | 1.2 | 1019 |
| 08/30 21:00 | 56 | 67 | 0.00 | 0.06 | 83.9 | 4.3 | 1019 |
| 08/30 20:00 | 57 | 65 | 0.00 | 0.06 | 63.8 | 2.4 | 1018 |
| 08/30 19:00 | 59 | 61 | 0.00 | 0.06 | 63.2 | 1.2 | 1019 |
| 08/30 18:00 | 60 | 58 | 0.00 | 0.06 | 60.3 | 3.0 | 1019 |
| 08/30 17:00 | 64 | 50 | 0.00 | 0.06 | 61.6 | 1.2 | 1018 |
| 08/30 16:00 | 64 | 50 | 0.00 | 0.06 | 62.3 | 2.8 | 1018 |
| 08/30 15:00 | 63 | 51 | 0.00 | 0.06 | 53.5 | 1.7 | 1019 |
| 08/30 14:00 | 62 | 51 | 0.00 | 0.06 | 60.7 | 1.8 | 1019 |
| 08/30 13:00 | 63 | 50 | 0.00 | 0.06 | 47.4 | 2.5 | 1019 |
| 08/30 12:00 | 62 | 50 | 0.00 | 0.06 | 48.9 | 3.5 | 1019 |
| 08/30 11:00 | 58 | 56 | 0.00 | 0.06 | 48.1 | 5.2 | 1019 |
| 08/30 10:00 | 57 | 58 | 0.00 | 0.06 | 47.5 | 17.1 | 1019 |
| 08/30 09:00 | 57 | 59 | 0.00 | 0.06 | 45.0 | 1.5 | 1019 |
| 08/30 08:00 | 53 | 72 | 0.00 | 0.06 | 51.3 | 13.0 | 1019 |
| 08/30 07:00 | 50 | 82 | 0.00 | 0.06 | 51.9 | 14.6 | 1018 |
| 08/30 06:00 | 50 | 83 | 0.00 | 0.06 | 65.1 | 14.5 | 1019 |
| 08/30 05:00 | 49 | 81 | 0.00 | 0.06 | 55.7 | 12.9 | 1018 |
| 08/30 04:00 | 48 | 83 | 0.00 | 0.06 | 64.7 | 7.2 | 1019 |
| 08/30 03:00 | 48 | 84 | 0.00 | 0.06 | 56.0 | 7.3 | 1019 |
| 08/30 02:00 | 48 | 83 | 0.00 | 0.06 | 63.4 | 7.1 | 1019 |
| 08/30 01:00 | 49 | 85 | 0.00 | 0.06 | 70.6 | 6.6 | 1019 |
| 08/30 00:00 | 48 | 86 | 0.00 | 0.06 | 56.0 | 5.0 | 1019 |
| 08/29 23:00 | 47 | 90 | 0.00 | 0.06 | 63.7 | 7.0 | 1019 |
| 08/29 22:00 | 48 | 89 | 0.00 | 0.06 | 67.3 | 7.0 | 1019 |
| 08/29 21:00 | 49 | 89 | 0.01 | 0.06 | 64.9 | 8.9 | 1018 |
| 08/29 20:00 | 51 | 83 | 0.00 | 0.05 | 65.1 | 3.3 | 1018 |
| 08/29 19:00 | 52 | 81 | 0.00 | 0.05 | 70.1 | 12.7 | 1018 |
| 08/29 18:00 | 52 | 83 | 0.00 | 0.05 | 73.5 | 12.8 | 1018 |
| 08/29 17:00 | 52 | 87 | 0.03 | 0.05 | 78.9 | 8.8 | 1018 |
| 08/29 16:00 | 53 | 78 | 0.01 | 0.02 | 79.1 | 7.8 | 1017 |
| 08/29 15:00 | 55 | 65 | 0.00 | 0.01 | 72.2 | 1.3 | 1017 |
| 08/29 14:00 | 54 | 71 | 0.00 | 0.01 | 73.8 | 3.0 | 1017 |
| 08/29 13:00 | 57 | 60 | 0.00 | 0.01 | 77.8 | 1.5 | 1017 |
| 08/29 12:00 | 57 | 60 | 0.00 | 0.01 | 75.0 | 1.5 | 1016 |
| 08/29 11:00 | 54 | 65 | 0.00 | 0.01 | 72.8 | 3.5 | 1015 |
| 08/29 10:00 | 54 | 70 | 0.01 | 0.01 | 96.4 | 1.6 | 1015 |
| 08/29 09:00 | 52 | 82 | 0.00 | 0.00 | 89.1 | 5.0 | 1015 |
| 08/29 08:00 | 54 | 67 | 0.00 | 0.00 | 97.3 | 3.3 | 1014 |
| 08/29 07:00 | 54 | 65 | 0.00 | 0.00 | 101.0 | 3.4 | 1014 |
| 08/29 06:00 | 53 | 71 | 0.00 | 0.00 | 96.7 | 1.3 | 1014 |
| 08/29 05:00 | 54 | 71 | 0.00 | 0.00 | 90.2 | 2.0 | 1014 |
| 08/29 04:00 | 55 | 70 | 0.00 | 0.00 | 96.6 | 1.6 | 1014 |
| 08/29 03:00 | 55 | 71 | 0.00 | 0.00 | 90.7 | 1.7 | 1014 |
| 08/29 02:00 | 55 | 70 | 0.00 | 0.00 | 98.4 | 1.3 | 1014 |
| 08/29 01:00 | 54 | 72 | 0.00 | 0.00 | 87.4 | 1.6 | 1015 |
| 08/29 00:00 | 54 | 72 | 0.00 | 0.00 | 86.0 | 1.3 | 1015 |
| 08/28 23:00 | 54 | 72 | 0.00 | 0.00 | 81.0 | 1.3 | 1015 |
| 08/28 22:00 | 57 | 68 | 0.00 | 0.00 | 84.9 | 2.4 | 1016 |
| 08/28 21:00 | 58 | 63 | 0.00 | 0.00 | 84.9 | 1.9 | 1015 |
| 08/28 20:00 | 61 | 59 | 0.00 | 0.00 | 93.0 | 1.6 | 1015 |
| 08/28 19:00 | 64 | 53 | 0.00 | 0.00 | 89.0 | 0.2 | 1015 |
| 08/28 18:00 | 68 | 43 | 0.00 | 0.00 | 85.4 | 2.0 | 1015 |
| 08/28 17:00 | 72 | 36 | 0.00 | 0.00 | 90.9 | 0.6 | 1015 |
| 08/28 16:00 | 71 | 37 | 0.00 | 0.00 | 87.4 | 0.6 | 1016 |
| 08/28 15:00 | 71 | 37 | 0.00 | 0.00 | 81.6 | 0.8 | 1016 |
| 08/28 14:00 | 70 | 39 | 0.00 | 0.00 | 71.6 | -0.3 | 1016 |
| 08/28 13:00 | 71 | 39 | 0.00 | 0.00 | 81.0 | 1.7 | 1016 |
| 08/28 12:00 | 69 | 42 | 0.00 | 0.00 | 75.2 | 1.2 | 1016 |
| 08/28 11:00 | 68 | 46 | 0.00 | 0.00 | 71.2 | 0.9 | 1017 |
| 08/28 10:00 | 64 | 51 | 0.00 | 0.00 | 81.4 | 1.4 | 1017 |
| 08/28 09:00 | 62 | 56 | 0.00 | 0.00 | 90.0 | 3.1 | 1018 |
| 08/28 08:00 | 57 | 70 | 0.00 | 0.00 | 99.8 | 3.1 | 1018 |
| 08/28 07:00 | 54 | 76 | 0.00 | 0.00 | 95.0 | 3.4 | 1018 |
| 08/28 06:00 | 54 | 76 | 0.00 | 0.00 | 99.4 | 3.6 | 1018 |
| 08/28 05:00 | 54 | 75 | 0.00 | 0.00 | 90.1 | 3.6 | 1018 |
| 08/28 04:00 | 55 | 74 | 0.00 | 0.00 | 102.0 | 3.5 | 1018 |
| 08/28 03:00 | 56 | 72 | 0.00 | 0.00 | 94.9 | 3.4 | 1018 |
| 08/28 02:00 | 58 | 67 | 0.00 | 0.00 | 99.2 | 3.3 | 1019 |
| 08/28 01:00 | 59 | 64 | 0.00 | 0.00 | 99.6 | 3.4 | 1018 |
| 08/28 00:00 | 60 | 64 | 0.00 | 0.00 | 100.7 | 3.4 | 1018 |
| 08/27 23:00 | 60 | 63 | 0.00 | 0.00 | 97.2 | 3.1 | 1018 |
| 08/27 22:00 | 60 | 61 | 0.00 | 0.00 | 95.4 | 3.0 | 1018 |
| 08/27 21:00 | 61 | 60 | 0.00 | 0.00 | 103.8 | 3.0 | 1018 |
| 08/27 20:00 | 62 | 56 | 0.00 | 0.00 | 105.7 | 2.2 | 1018 |
| 08/27 19:00 | 63 | 53 | 0.00 | 0.00 | 98.0 | 2.2 | 1018 |
| 08/27 18:00 | 64 | 50 | 0.00 | 0.00 | 97.5 | 2.6 | 1018 |
| 08/27 17:00 | 66 | 47 | 0.00 | 0.00 | 93.2 | 1.4 | 1018 |
| 08/27 16:00 | 66 | 48 | 0.00 | 0.00 | 90.1 | 1.3 | 1018 |
| 08/27 15:00 | 67 | 46 | 0.00 | 0.00 | 87.6 | 1.1 | 1018 |
| 08/27 14:00 | 71 | 37 | 0.00 | 0.00 | 91.5 | 1.7 | 1017 |
| 08/27 13:00 | 71 | 36 | 0.00 | 0.00 | 86.1 | 1.3 | 1017 |
| 08/27 12:00 | 68 | 36 | 0.00 | 0.00 | 81.9 | 2.6 | 1017 |
| 08/27 11:00 | 68 | 41 | 0.00 | 0.00 | 81.5 | 2.6 | 1017 |
| 08/27 10:00 | 64 | 51 | 0.00 | 0.00 | 81.8 | 2.5 | 1017 |
| 08/27 09:00 | 65 | 50 | 0.00 | 0.00 | 86.6 | 3.0 | 1017 |
| 08/27 08:00 | 64 | 58 | 0.00 | 0.00 | 93.9 | 3.5 | 1017 |
| 08/27 07:00 | 58 | 69 | 0.00 | 0.00 | 92.8 | 3.4 | 1016 |
| 08/27 06:00 | 57 | 70 | 0.00 | 0.00 | 91.7 | 3.4 | 1016 |
| 08/27 05:00 | 56 | 71 | 0.00 | 0.00 | 94.3 | 3.4 | 1016 |
| 08/27 04:00 | 56 | 70 | 0.00 | 0.00 | 99.2 | 3.4 | 1016 |
| 08/27 03:00 | 59 | 64 | 0.00 | 0.00 | 95.6 | 3.1 | 1017 |
| 08/27 02:00 | 61 | 60 | 0.00 | 0.00 | 97.3 | 2.6 | 1017 |
| 08/27 01:00 | 60 | 61 | 0.00 | 0.00 | 102.6 | 2.9 | 1017 |
| 08/27 00:00 | 61 | 60 | 0.00 | 0.00 | 95.0 | 3.0 | 1017 |
| 08/26 23:00 | 62 | 58 | 0.00 | 0.00 | 104.8 | 2.3 | 1017 |
| 08/26 22:00 | 63 | 55 | 0.00 | 0.00 | 102.1 | 1.6 | 1017 |
| 08/26 21:00 | 65 | 51 | 0.00 | 0.00 | 99.4 | 1.3 | 1017 |
| 08/26 20:00 | 68 | 45 | 0.00 | 0.00 | 95.6 | 0.9 | 1017 |
| 08/26 19:00 | 72 | 35 | 0.00 | 0.00 | 102.0 | 0.7 | 1017 |
| 08/26 18:00 | 75 | 27 | 0.00 | 0.00 | 102.0 | 1.0 | 1016 |
| 08/26 17:00 | 78 | 27 | 0.00 | 0.00 | 105.9 | 1.6 | 1016 |
| 08/26 16:00 | 78 | 29 | 0.00 | 0.00 | 98.1 | 0.7 | 1017 |
| 08/26 15:00 | 81 | 32 | 0.00 | 0.00 | 95.7 | -0.9 | 1016 |
| 08/26 14:00 | 81 | 36 | 0.00 | 0.00 | 88.0 | 0.2 | 1016 |
| 08/26 13:00 | 83 | 32 | 0.00 | 0.00 | 93.7 | -0.3 | 1015 |
| 08/26 12:00 | 84 | 29 | 0.00 | 0.00 | 87.7 | 1.1 | 1015 |
| 08/26 11:00 | 84 | 30 | 0.00 | 0.00 | 80.7 | 0.2 | 1015 |
| 08/26 10:00 | 80 | 33 | 0.00 | 0.00 | 78.6 | 0.2 | 1016 |
| 08/26 09:00 | 73 | 45 | 0.00 | 0.00 | 85.4 | 1.0 | 1017 |
| 08/26 08:00 | 64 | 58 | 0.00 | 0.00 | 96.3 | 3.2 | 1017 |
| 08/26 07:00 | 59 | 64 | 0.00 | 0.00 | 100.6 | 3.8 | 1017 |
| 08/26 06:00 | 57 | 66 | 0.00 | 0.00 | 88.4 | 4.2 | 1017 |
| 08/26 05:00 | 59 | 61 | 0.00 | 0.00 | 77.9 | 4.2 | 1017 |
| 08/26 04:00 | 60 | 60 | 0.00 | 0.00 | 79.6 | 3.5 | 1018 |
| 08/26 03:00 | 61 | 63 | 0.00 | 0.00 | 81.1 | 2.6 | 1018 |
| 08/26 02:00 | 63 | 61 | 0.00 | 0.00 | 87.6 | 2.4 | 1019 |
| 08/26 01:00 | 63 | 60 | 0.00 | 0.00 | 91.0 | 1.4 | 1018 |
| 08/26 00:00 | 64 | 59 | 0.00 | 0.00 | 101.1 | 2.0 | 1018 |
| 08/25 23:00 | 66 | 58 | 0.00 | 0.00 | 103.1 | 1.8 | 1018 |
| 08/25 22:00 | 68 | 55 | 0.00 | 0.00 | 108.0 | 1.8 | 1019 |
| 08/25 21:00 | 70 | 53 | 0.00 | 0.00 | 110.3 | 2.2 | 1019 |
| 08/25 20:00 | 74 | 46 | 0.00 | 0.00 | 103.9 | 2.0 | 1018 |
| 08/25 19:00 | 78 | 40 | 0.00 | 0.00 | 112.1 | -0.7 | 1017 |
| 08/25 18:00 | 86 | 19 | 0.00 | 0.00 | 113.3 | 1.6 | 1016 |
| 08/25 17:00 | 86 | 20 | 0.00 | 0.00 | 111.3 | 0.8 | 1017 |
| 08/25 16:00 | 86 | 20 | 0.00 | 0.00 | 114.3 | 1.2 | 1016 |
| 08/25 15:00 | 84 | 20 | 0.00 | 0.00 | 102.8 | 2.4 | 1017 |
| 08/25 14:00 | 85 | 23 | 0.00 | 0.00 | 96.9 | 2.9 | 1017 |
| 08/25 13:00 | 85 | 23 | 0.00 | 0.00 | 96.5 | 2.8 | 1018 |
| 08/25 12:00 | 82 | 24 | 0.00 | 0.00 | 82.4 | 1.0 | 1018 |
| 08/25 11:00 | 80 | 31 | 0.00 | 0.00 | 78.1 | 0.8 | 1018 |
| 08/25 10:00 | 73 | 41 | 0.00 | 0.00 | 97.2 | 1.7 | 1019 |
| 08/25 09:00 | 65 | 56 | 0.00 | 0.00 | 110.4 | 2.0 | 1020 |
| 08/25 08:00 | 58 | 66 | 0.00 | 0.00 | 101.4 | 3.2 | 1020 |
| 08/25 07:00 | 51 | 78 | 0.00 | 0.00 | 105.2 | 3.8 | 1020 |
| 08/25 06:00 | 51 | 78 | 0.00 | 0.00 | 104.9 | 3.7 | 1019 |
| 08/25 05:00 | 52 | 76 | 0.00 | 0.00 | 95.2 | 3.5 | 1019 |
| 08/25 04:00 | 53 | 74 | 0.00 | 0.00 | 103.6 | 3.2 | 1019 |
| 08/25 03:00 | 54 | 72 | 0.00 | 0.00 | 96.5 | 3.9 | 1019 |
| 08/25 02:00 | 55 | 70 | 0.00 | 0.00 | 102.5 | 1.4 | 1019 |
| 08/25 01:00 | 57 | 67 | 0.00 | 0.00 | 106.7 | 1.5 | 1019 |
| 08/25 00:00 | 59 | 63 | 0.00 | 0.00 | 99.8 | 2.5 | 1019 |
| 08/24 23:00 | 61 | 59 | 0.00 | 0.00 | 96.8 | 1.2 | 1019 |
| 08/24 22:00 | 63 | 54 | 0.00 | 0.00 | 84.3 | 1.2 | 1019 |
| 08/24 21:00 | 67 | 49 | 0.00 | 0.00 | 83.7 | 0.7 | 1019 |
| 08/24 20:00 | 73 | 38 | 0.00 | 0.00 | 88.3 | 1.3 | 1018 |
| 08/24 19:00 | 78 | 28 | 0.00 | 0.00 | 88.4 | 1.1 | 1017 |

